createdAt,value
2022-11-09T00:04:13.769Z,85.59
2022-11-09T00:09:16.616Z,85.50
2022-11-09T00:14:19.980Z,85.40
2022-11-09T00:19:24.904Z,85.26
2022-11-09T00:24:27.726Z,85.32
2022-11-09T00:29:31.102Z,85.28
2022-11-09T00:34:33.845Z,85.45
2022-11-09T00:39:36.608Z,85.34
2022-11-09T00:44:39.395Z,85.55
2022-11-09T00:49:42.244Z,85.88
2022-11-09T00:54:45.020Z,86.08
2022-11-09T00:59:48.027Z,86.30
2022-11-09T01:04:50.839Z,86.20
2022-11-09T01:09:53.600Z,86.39
2022-11-09T01:14:56.384Z,86.29
2022-11-09T01:19:59.145Z,86.77
2022-11-09T01:25:01.988Z,86.89
2022-11-09T01:30:05.218Z,87.15
2022-11-09T01:35:08.394Z,87.64
2022-11-09T01:40:12.357Z,88.15
2022-11-09T01:45:18.230Z,88.49
2022-11-09T01:50:33.461Z,88.68
2022-11-09T01:55:36.436Z,89.03
2022-11-09T02:00:44.972Z,89.41
2022-11-09T02:05:49.944Z,89.55
2022-11-09T02:10:55.620Z,89.84
2022-11-09T02:15:59.093Z,90.07
2022-11-09T02:21:01.856Z,90.34
2022-11-09T02:26:09.943Z,90.32
2022-11-09T02:31:16.287Z,90.36
2022-11-09T02:36:19.090Z,90.55
2022-11-09T02:41:23.196Z,90.64
2022-11-09T02:46:32.337Z,90.99
2022-11-09T02:51:35.174Z,90.99
2022-11-09T02:56:37.959Z,90.79
2022-11-09T03:01:40.785Z,91.19
2022-11-09T03:06:43.619Z,90.93
2022-11-09T03:11:46.481Z,91.02
2022-11-09T03:16:50.933Z,91.09
2022-11-09T03:21:54.347Z,91.04
2022-11-09T03:26:57.173Z,91.16
2022-11-09T03:31:59.963Z,91.25
2022-11-09T03:37:02.819Z,90.76
2022-11-09T03:42:05.605Z,90.95
2022-11-09T03:47:08.358Z,90.62
2022-11-09T03:52:11.091Z,90.61
2022-11-09T03:57:13.863Z,90.55
2022-11-09T04:02:16.620Z,90.61
2022-11-09T04:07:19.433Z,90.84
2022-11-09T04:12:22.325Z,90.93
2022-11-09T04:17:25.114Z,91.09
2022-11-09T04:22:28.877Z,91.39
2022-11-09T04:27:31.676Z,91.06
2022-11-09T04:32:34.462Z,91.08
2022-11-09T04:37:37.197Z,91.23
2022-11-09T04:42:39.929Z,90.97
2022-11-09T04:47:42.693Z,90.95
2022-11-09T04:52:45.503Z,91.14
2022-11-09T04:57:48.289Z,91.32
2022-11-09T05:02:51.159Z,91.70
2022-11-09T05:07:53.936Z,91.40
2022-11-09T05:13:06.096Z,91.49
2022-11-09T05:18:10.091Z,91.49
2022-11-09T05:23:31.392Z,91.25
2022-11-09T05:28:34.143Z,90.92
2022-11-09T05:33:36.890Z,91.09
2022-11-09T05:38:39.683Z,91.18
2022-11-09T05:43:44.969Z,91.31
2022-11-09T05:48:47.841Z,91.18
2022-11-09T05:53:50.949Z,91.47
2022-11-09T05:58:53.737Z,91.76
2022-11-09T06:03:56.568Z,92.05
2022-11-09T06:08:59.306Z,91.79
2022-11-09T06:14:02.135Z,91.93
2022-11-09T06:19:04.892Z,92.13
2022-11-09T06:24:07.876Z,92.16
2022-11-09T06:29:10.898Z,92.21
2022-11-09T06:34:20.001Z,92.13
2022-11-09T06:39:23.484Z,92.27
2022-11-09T06:44:26.254Z,92.54
2022-11-09T06:49:33.615Z,92.12
2022-11-09T06:54:39.529Z,91.68
2022-11-09T06:59:45.083Z,91.60
2022-11-09T07:04:53.590Z,90.99
2022-11-09T07:09:57.916Z,91.08
2022-11-09T07:15:05.263Z,90.87
2022-11-09T07:20:09.321Z,91.60
2022-11-09T07:25:13.305Z,91.76
2022-11-09T07:30:17.155Z,91.12
2022-11-09T07:35:20.366Z,89.53
2022-11-09T07:40:24.142Z,88.98
2022-11-09T07:45:29.412Z,88.61
2022-11-09T07:50:34.164Z,88.27
2022-11-09T07:55:37.318Z,87.95
2022-11-09T08:00:47.332Z,86.92
2022-11-09T08:05:50.712Z,86.15
2022-11-09T08:10:53.863Z,86.22
2022-11-09T08:15:56.877Z,84.81
2022-11-09T08:21:03.432Z,84.80
2022-11-09T08:26:07.280Z,84.37
2022-11-09T08:31:11.434Z,84.19
2022-11-09T08:36:17.413Z,82.89
2022-11-09T08:41:20.333Z,82.24
2022-11-09T08:46:23.301Z,81.76
2022-11-09T08:51:28.237Z,80.60
2022-11-09T08:56:31.288Z,80.46
2022-11-09T09:01:35.147Z,80.44
2022-11-09T09:06:40.391Z,80.60
2022-11-09T09:11:44.744Z,79.91
2022-11-09T09:16:48.774Z,80.08
2022-11-09T09:21:51.669Z,80.67
2022-11-09T09:26:54.938Z,80.20
2022-11-09T09:31:58.347Z,78.94
2022-11-09T09:37:01.501Z,78.02
2022-11-09T09:42:18.772Z,77.95
2022-11-09T09:47:40.020Z,78.03
2022-11-09T09:53:24.332Z,78.45
2022-11-09T09:58:33.972Z,78.34
2022-11-09T10:03:37.245Z,78.31
2022-11-09T10:08:59.160Z,77.48
2022-11-09T10:14:14.171Z,77.97
2022-11-09T10:19:58.981Z,77.73
2022-11-09T10:25:57.774Z,77.37
2022-11-09T10:30:49.621Z,76.17
2022-11-09T10:36:06.874Z,75.89
2022-11-09T10:41:39.876Z,75.84
2022-11-09T10:47:07.448Z,75.07
2022-11-09T10:52:30.929Z,74.36
2022-11-09T10:57:34.019Z,75.35
2022-11-09T11:02:45.666Z,74.75
2022-11-09T11:07:48.733Z,73.60
2022-11-09T11:13:13.862Z,73.48
2022-11-09T11:18:25.658Z,74.01
2022-11-09T11:23:28.722Z,73.75
2022-11-09T11:28:46.595Z,74.19
2022-11-09T11:33:49.846Z,73.24
2022-11-09T11:39:22.334Z,72.67
2022-11-09T11:44:33.348Z,72.81
2022-11-09T11:49:57.800Z,72.68
2022-11-09T11:55:19.763Z,72.49
2022-11-09T12:00:24.390Z,72.73
2022-11-09T12:05:59.603Z,72.65
2022-11-09T12:11:18.457Z,72.98
2022-11-09T12:16:39.841Z,72.96
2022-11-09T12:22:24.223Z,72.47
2022-11-09T12:27:36.349Z,73.43
2022-11-09T12:33:03.640Z,73.08
2022-11-09T12:38:18.425Z,72.35
2022-11-09T12:43:58.133Z,72.54
2022-11-09T12:49:05.207Z,72.36
2022-11-09T12:54:11.779Z,72.87
2022-11-09T12:59:27.453Z,72.74
2022-11-09T13:04:30.691Z,73.01
2022-11-09T13:09:44.313Z,73.18
2022-11-09T13:14:48.422Z,73.35
2022-11-09T13:25:03.323Z,73.75
2022-11-09T13:30:42.880Z,73.69
2022-11-09T13:35:48.853Z,74.05
2022-11-09T13:40:59.496Z,74.74
2022-11-09T13:46:14.714Z,75.22
2022-11-09T13:51:36.560Z,74.78
2022-11-09T13:56:41.138Z,75.27
2022-11-09T14:01:48.897Z,74.91
2022-11-09T14:07:11.234Z,74.97
2022-11-09T14:12:21.540Z,75.36
2022-11-09T14:17:50.572Z,75.54
2022-11-09T14:22:53.361Z,76.04
2022-11-09T14:27:58.946Z,76.71
2022-11-09T14:33:01.749Z,76.97
2022-11-09T14:38:44.190Z,77.72
2022-11-09T14:43:49.963Z,77.16
2022-11-09T14:48:58.996Z,77.24
2022-11-09T14:54:06.610Z,78.02
2022-11-09T14:59:15.269Z,77.92
2022-11-09T15:04:21.231Z,77.97
2022-11-09T15:09:43.277Z,77.65
2022-11-09T15:15:07.305Z,77.90
2022-11-09T15:20:14.034Z,77.92
2022-11-09T15:25:41.393Z,78.05
2022-11-09T15:30:53.872Z,77.89
2022-11-09T15:35:58.746Z,78.26
2022-11-09T15:41:10.648Z,78.28
2022-11-09T15:46:16.770Z,78.55
2022-11-09T15:51:20.582Z,79.30
2022-11-09T15:56:24.736Z,79.68
2022-11-09T16:01:29.226Z,80.65
2022-11-09T16:06:32.112Z,81.28
2022-11-09T16:11:35.058Z,81.76
2022-11-09T16:16:38.352Z,81.94
2022-11-09T16:21:41.560Z,81.74
2022-11-09T16:26:45.703Z,81.89
2022-11-09T16:31:51.822Z,81.92
2022-11-09T16:36:56.971Z,82.25
2022-11-09T16:42:05.960Z,81.94
2022-11-09T16:47:13.549Z,81.89
2022-11-09T16:52:16.430Z,81.68
2022-11-09T16:57:19.214Z,82.16
2022-11-09T17:02:25.135Z,82.19
2022-11-09T17:07:28.579Z,82.17
2022-11-09T17:12:32.443Z,81.90
2022-11-09T17:17:35.346Z,81.64
2022-11-09T17:22:43.120Z,82.28
2022-11-09T17:27:48.950Z,83.25
2022-11-09T17:32:52.446Z,84.23
2022-11-09T17:37:55.427Z,84.99
2022-11-09T17:43:00.192Z,85.42
2022-11-09T17:48:04.725Z,85.99
2022-11-09T17:53:07.616Z,85.96
2022-11-09T17:58:12.031Z,86.03
2022-11-09T18:03:15.496Z,86.24
2022-11-09T18:08:18.531Z,86.39
2022-11-09T18:13:21.905Z,86.44
2022-11-09T18:18:25.548Z,86.56
2022-11-09T18:23:28.579Z,86.74
2022-11-09T18:28:33.881Z,87.01
2022-11-09T18:33:36.931Z,87.26
2022-11-09T18:38:39.827Z,87.40
2022-11-09T18:43:42.666Z,87.72
2022-11-09T18:48:45.850Z,87.87
2022-11-09T18:53:49.664Z,88.05
2022-11-09T18:58:55.290Z,88.18
2022-11-09T19:04:00.541Z,88.43
2022-11-09T19:09:23.405Z,88.60
2022-11-09T19:14:45.526Z,88.71
2022-11-09T19:19:48.611Z,88.78
2022-11-09T19:24:51.639Z,88.83
2022-11-09T19:29:57.987Z,88.75
2022-11-09T19:35:00.918Z,88.84
2022-11-09T19:40:04.073Z,88.93
2022-11-09T19:45:09.583Z,88.85
2022-11-09T19:50:12.565Z,88.99
2022-11-09T19:55:15.460Z,89.05
2022-11-09T20:00:18.828Z,89.21
2022-11-09T20:05:21.750Z,89.27
2022-11-09T20:10:26.158Z,89.22
2022-11-09T20:15:29.055Z,89.23
2022-11-09T20:20:32.926Z,89.03
2022-11-09T20:25:38.148Z,89.14
2022-11-09T20:30:45.668Z,89.17
2022-11-09T20:35:55.593Z,89.04
2022-11-09T20:41:01.226Z,88.98
2022-11-09T20:46:06.858Z,89.03
2022-11-09T20:51:12.212Z,89.14
2022-11-09T20:56:15.471Z,89.12
2022-11-09T21:01:20.358Z,89.06
2022-11-09T21:06:23.435Z,89.04
2022-11-09T21:11:28.838Z,88.98
2022-11-09T21:16:31.933Z,88.97
2022-11-09T21:21:36.665Z,89.17
2022-11-09T21:26:58.831Z,89.30
2022-11-09T21:32:02.849Z,89.43
2022-11-09T21:37:05.717Z,89.65
2022-11-09T21:42:12.194Z,89.95
2022-11-09T21:47:15.138Z,89.99
2022-11-09T21:52:18.118Z,90.03
2022-11-09T21:57:20.942Z,89.94
2022-11-09T22:02:23.883Z,90.05
2022-11-09T22:07:26.952Z,90.03
2022-11-09T22:12:48.437Z,90.11
2022-11-09T22:17:56.465Z,90.17
2022-11-09T22:22:59.357Z,90.28
2022-11-09T22:28:05.475Z,90.35
2022-11-09T22:33:08.816Z,90.32
2022-11-09T22:38:11.892Z,90.30
2022-11-09T22:43:14.852Z,90.25
2022-11-09T22:48:18.588Z,90.26
2022-11-09T22:53:21.692Z,90.34
2022-11-09T22:58:26.190Z,90.44
2022-11-09T23:03:29.032Z,90.37
2022-11-09T23:08:37.678Z,90.66
2022-11-09T23:13:41.497Z,90.63
2022-11-09T23:18:54.548Z,90.80
2022-11-09T23:24:01.635Z,90.84
2022-11-09T23:29:04.379Z,90.75
2022-11-09T23:34:10.179Z,90.62
2022-11-09T23:39:13.157Z,91.04
2022-11-09T23:44:15.941Z,91.26
2022-11-09T23:49:18.767Z,91.17
2022-11-09T23:54:21.499Z,91.33
2022-11-09T23:59:24.345Z,91.48
